createdAt,value
2019-03-22T00:02:20.875Z,4.97
2019-03-22T00:04:49.279Z,4.95
2019-03-22T00:07:17.672Z,4.90
2019-03-22T00:09:46.080Z,4.86
2019-03-22T00:12:14.713Z,4.84
2019-03-22T00:14:43.342Z,4.81
2019-03-22T00:17:11.745Z,4.92
2019-03-22T00:19:40.142Z,4.84
2019-03-22T00:22:08.549Z,4.80
2019-03-22T00:24:36.940Z,4.77
2019-03-22T00:27:16.018Z,4.82
2019-03-22T00:29:35.685Z,4.83
2019-03-22T00:32:04.382Z,4.83
2019-03-22T00:34:33.027Z,4.78
2019-03-22T00:37:01.658Z,4.77
2019-03-22T00:39:30.111Z,4.75
2019-03-22T00:41:58.757Z,4.74
2019-03-22T00:44:27.159Z,4.72
2019-03-22T00:46:55.565Z,4.68
2019-03-22T00:49:24.190Z,4.67
2019-03-22T00:51:52.582Z,4.61
2019-03-22T00:54:20.982Z,4.64
2019-03-22T00:56:49.611Z,4.57
2019-03-22T00:59:18.254Z,4.55
2019-03-22T01:01:46.699Z,4.51
2019-03-22T01:04:15.327Z,4.48
2019-03-22T01:06:43.727Z,4.46
2019-03-22T01:09:12.357Z,4.43
2019-03-22T01:11:40.773Z,4.35
2019-03-22T01:14:09.162Z,4.39
2019-03-22T01:16:37.788Z,4.34
2019-03-22T01:19:06.188Z,4.30
2019-03-22T01:21:34.576Z,4.26
2019-03-22T01:24:02.980Z,4.27
2019-03-22T01:26:31.380Z,4.28
2019-03-22T01:28:59.940Z,4.24
2019-03-22T01:31:28.396Z,4.25
2019-03-22T01:33:57.025Z,4.18
2019-03-22T01:36:25.432Z,4.11
2019-03-22T01:38:54.057Z,4.08
2019-03-22T01:41:22.701Z,4.08
2019-03-22T01:43:51.103Z,4.10
2019-03-22T01:46:19.494Z,4.02
2019-03-22T01:48:47.897Z,4.00
2019-03-22T01:51:16.530Z,3.98
2019-03-22T01:53:45.232Z,3.95
2019-03-22T01:56:13.635Z,3.91
2019-03-22T01:58:42.028Z,3.92
2019-03-22T02:01:10.435Z,3.84
2019-03-22T02:03:38.948Z,3.86
2019-03-22T02:06:07.592Z,3.89
2019-03-22T02:08:36.231Z,3.95
2019-03-22T02:11:04.931Z,4.03
2019-03-22T02:13:33.398Z,3.95
2019-03-22T02:16:01.791Z,3.93
2019-03-22T02:18:30.427Z,3.86
2019-03-22T02:20:58.837Z,3.81
2019-03-22T02:23:27.467Z,3.77
2019-03-22T02:25:56.115Z,3.81
2019-03-22T02:28:24.743Z,3.76
2019-03-22T02:30:53.148Z,3.72
2019-03-22T02:33:21.597Z,3.71
2019-03-22T02:35:49.998Z,3.66
2019-03-22T02:38:18.637Z,3.67
2019-03-22T02:40:47.438Z,3.64
2019-03-22T02:43:15.883Z,3.63
2019-03-22T02:45:44.463Z,3.70
2019-03-22T02:48:12.858Z,3.63
2019-03-22T02:50:41.265Z,3.65
2019-03-22T02:53:09.660Z,3.55
2019-03-22T02:55:38.053Z,3.53
2019-03-22T02:58:19.878Z,3.54
2019-03-22T03:00:36.571Z,3.55
2019-03-22T03:03:05.039Z,3.52
2019-03-22T03:05:33.429Z,3.46
2019-03-22T03:08:01.823Z,3.50
2019-03-22T03:10:30.230Z,3.44
2019-03-22T03:12:58.621Z,3.40
2019-03-22T03:15:27.038Z,3.35
2019-03-22T03:17:55.426Z,3.28
2019-03-22T03:20:24.056Z,3.25
2019-03-22T03:22:52.462Z,3.28
2019-03-22T03:25:21.141Z,3.22
2019-03-22T03:27:49.774Z,3.21
2019-03-22T03:30:19.515Z,3.29
2019-03-22T03:32:47.903Z,3.23
2019-03-22T03:35:16.873Z,3.18
2019-03-22T03:37:45.518Z,3.24
2019-03-22T03:40:14.759Z,3.25
2019-03-22T03:42:43.136Z,3.17
2019-03-22T03:45:32.628Z,3.16
2019-03-22T03:48:02.046Z,3.12
2019-03-22T03:50:30.504Z,3.11
2019-03-22T03:52:59.149Z,3.04
2019-03-22T03:55:28.592Z,3.02
2019-03-22T03:57:57.350Z,3.04
2019-03-22T04:00:25.733Z,2.95
2019-03-22T04:02:54.119Z,2.96
2019-03-22T04:05:22.508Z,2.89
2019-03-22T04:07:51.528Z,2.84
2019-03-22T04:10:19.917Z,2.84
2019-03-22T04:12:48.310Z,2.84
2019-03-22T04:15:16.958Z,2.84
2019-03-22T04:17:45.335Z,2.83
2019-03-22T04:20:13.798Z,2.88
2019-03-22T04:22:42.206Z,2.84
2019-03-22T04:25:10.670Z,2.89
2019-03-22T04:27:39.052Z,2.89
2019-03-22T04:30:08.199Z,2.90
2019-03-22T04:32:36.820Z,2.92
2019-03-22T04:35:07.351Z,2.94
2019-03-22T04:37:35.759Z,2.89
2019-03-22T04:40:18.907Z,2.87
2019-03-22T04:42:47.420Z,2.83
2019-03-22T04:45:16.264Z,2.82
2019-03-22T04:47:46.160Z,2.75
2019-03-22T04:50:15.251Z,2.73
2019-03-22T04:52:43.879Z,2.74
2019-03-22T04:55:13.862Z,2.69
2019-03-22T04:57:43.487Z,2.75
2019-03-22T05:00:12.454Z,2.70
2019-03-22T05:02:42.252Z,2.67
2019-03-22T05:05:13.224Z,2.65
2019-03-22T05:07:42.805Z,2.70
2019-03-22T05:10:14.000Z,2.63
2019-03-22T05:12:43.927Z,2.49
2019-03-22T05:15:14.336Z,2.51
2019-03-22T05:17:43.701Z,2.49
2019-03-22T05:20:12.645Z,2.49
2019-03-22T05:22:42.685Z,2.46
2019-03-22T05:25:11.505Z,2.52
2019-03-22T05:27:42.731Z,2.54
2019-03-22T05:30:14.178Z,2.52
2019-03-22T05:32:42.813Z,2.58
2019-03-22T05:35:11.207Z,2.59
2019-03-22T05:37:39.843Z,2.55
2019-03-22T05:40:08.395Z,2.56
2019-03-22T05:42:37.029Z,2.63
2019-03-22T05:45:07.299Z,2.67
2019-03-22T05:47:35.936Z,2.72
2019-03-22T05:50:06.222Z,2.74
2019-03-22T05:52:34.845Z,2.78
2019-03-22T05:55:03.534Z,2.87
2019-03-22T05:57:31.933Z,3.01
2019-03-22T06:00:00.332Z,3.05
2019-03-22T06:02:28.735Z,3.18
2019-03-22T06:04:57.124Z,3.29
2019-03-22T06:07:25.515Z,3.28
2019-03-22T06:09:54.181Z,3.24
2019-03-22T06:12:22.798Z,3.56
2019-03-22T06:14:51.206Z,3.62
2019-03-22T06:17:19.588Z,3.68
2019-03-22T06:19:48.262Z,3.73
2019-03-22T06:22:16.850Z,3.95
2019-03-22T06:24:45.483Z,4.00
2019-03-22T06:27:14.145Z,3.93
2019-03-22T06:29:53.618Z,4.03
2019-03-22T06:32:12.876Z,4.02
2019-03-22T06:34:41.351Z,4.10
2019-03-22T06:37:09.965Z,4.14
2019-03-22T06:39:38.369Z,4.17
2019-03-22T06:42:06.995Z,4.17
2019-03-22T06:44:35.640Z,4.25
2019-03-22T06:47:04.327Z,4.25
2019-03-22T06:49:32.954Z,4.43
2019-03-22T06:52:01.414Z,4.42
2019-03-22T06:54:31.911Z,4.60
2019-03-22T06:56:59.930Z,4.65
2019-03-22T06:59:28.321Z,4.48
2019-03-22T07:01:56.950Z,4.74
2019-03-22T07:04:25.351Z,4.87
2019-03-22T07:06:53.738Z,5.04
2019-03-22T07:09:22.140Z,5.06
2019-03-22T07:11:50.763Z,5.11
2019-03-22T07:14:19.171Z,5.28
2019-03-22T07:16:47.562Z,5.22
2019-03-22T07:19:16.188Z,5.49
2019-03-22T07:21:44.826Z,5.57
2019-03-22T07:24:13.214Z,5.66
2019-03-22T07:26:41.634Z,5.71
2019-03-22T07:29:10.261Z,5.73
2019-03-22T07:31:38.643Z,5.79
2019-03-22T07:34:07.048Z,5.93
2019-03-22T07:36:35.681Z,6.00
2019-03-22T07:39:07.122Z,6.16
2019-03-22T07:41:35.516Z,6.23
2019-03-22T07:44:04.143Z,6.23
2019-03-22T07:46:32.551Z,6.26
2019-03-22T07:49:00.936Z,6.46
2019-03-22T07:51:29.343Z,6.48
2019-03-22T07:53:57.972Z,6.60
2019-03-22T07:56:26.594Z,6.74
2019-03-22T07:58:55.041Z,6.79
2019-03-22T08:01:23.425Z,6.79
2019-03-22T08:03:52.138Z,7.03
2019-03-22T08:06:20.522Z,6.96
2019-03-22T08:08:49.142Z,7.19
2019-03-22T08:11:17.797Z,7.31
2019-03-22T08:13:46.223Z,7.47
2019-03-22T08:16:14.857Z,7.47
2019-03-22T08:18:43.523Z,7.54
2019-03-22T08:21:11.877Z,7.74
2019-03-22T08:23:41.149Z,7.60
2019-03-22T08:26:09.773Z,7.79
2019-03-22T08:28:38.411Z,7.86
2019-03-22T08:31:07.037Z,8.07
2019-03-22T08:33:35.648Z,8.12
2019-03-22T08:36:04.121Z,8.04
2019-03-22T08:38:32.757Z,8.10
2019-03-22T08:41:01.367Z,8.20
2019-03-22T08:43:29.740Z,8.41
2019-03-22T08:45:58.160Z,8.44
2019-03-22T08:48:26.564Z,8.43
2019-03-22T08:50:54.957Z,8.74
2019-03-22T08:53:23.345Z,8.93
2019-03-22T08:55:51.731Z,9.05
2019-03-22T08:58:20.133Z,9.07
2019-03-22T09:00:57.497Z,9.39
2019-03-22T09:03:19.108Z,9.43
2019-03-22T09:05:47.731Z,9.52
2019-03-22T09:08:16.387Z,9.60
2019-03-22T09:10:44.826Z,9.86
2019-03-22T09:13:13.434Z,9.90
2019-03-22T09:15:42.213Z,10.08
2019-03-22T09:18:10.678Z,10.27
2019-03-22T09:20:39.268Z,10.32
2019-03-22T09:23:07.673Z,10.60
2019-03-22T09:25:36.057Z,10.74
2019-03-22T09:28:04.499Z,10.48
2019-03-22T09:30:33.187Z,10.56
2019-03-22T09:33:01.550Z,10.60
2019-03-22T09:35:30.007Z,10.84
2019-03-22T09:37:58.647Z,11.16
2019-03-22T09:40:27.261Z,11.09
2019-03-22T09:42:55.646Z,11.11
2019-03-22T09:45:24.299Z,11.24
2019-03-22T09:47:52.710Z,11.28
2019-03-22T09:50:21.342Z,11.44
2019-03-22T09:52:49.719Z,11.71
2019-03-22T09:55:18.142Z,12.01
2019-03-22T09:57:49.302Z,12.13
2019-03-22T10:00:28.484Z,12.26
2019-03-22T10:02:57.028Z,12.38
2019-03-22T10:05:25.412Z,12.45
2019-03-22T10:07:53.761Z,12.40
2019-03-22T10:10:22.209Z,12.41
2019-03-22T10:12:50.903Z,12.58
2019-03-22T10:15:19.338Z,12.76
2019-03-22T10:17:47.935Z,13.14
2019-03-22T10:20:16.555Z,13.18
2019-03-22T10:22:45.216Z,13.15
2019-03-22T10:25:13.638Z,13.23
2019-03-22T10:27:41.971Z,13.19
2019-03-22T10:30:15.938Z,13.44
2019-03-22T10:32:44.341Z,13.44
2019-03-22T10:35:25.543Z,13.16
2019-03-22T10:37:42.979Z,13.57
2019-03-22T10:40:11.507Z,13.57
2019-03-22T10:42:39.934Z,13.53
2019-03-22T10:45:08.869Z,13.59
2019-03-22T10:47:37.456Z,13.59
2019-03-22T10:50:06.885Z,13.49
2019-03-22T10:52:35.291Z,13.77
2019-03-22T10:55:23.328Z,13.77
2019-03-22T10:57:34.672Z,14.09
2019-03-22T11:00:04.764Z,14.21
2019-03-22T11:02:33.373Z,14.21
2019-03-22T11:05:02.306Z,14.56
2019-03-22T11:07:31.156Z,14.56
2019-03-22T11:09:59.700Z,14.70
2019-03-22T11:12:28.345Z,14.36
2019-03-22T11:14:56.741Z,14.84
2019-03-22T11:17:25.124Z,14.74
2019-03-22T11:19:53.755Z,14.69
2019-03-22T11:22:22.148Z,14.69
2019-03-22T11:24:50.552Z,14.78
2019-03-22T11:27:18.942Z,15.13
2019-03-22T11:29:47.353Z,15.13
2019-03-22T11:32:15.795Z,15.08
2019-03-22T11:34:44.415Z,15.25
2019-03-22T11:37:12.942Z,15.17
2019-03-22T11:39:41.562Z,15.17
2019-03-22T11:42:10.215Z,15.10
2019-03-22T11:44:38.839Z,15.20
2019-03-22T11:47:07.360Z,15.08
2019-03-22T11:49:35.755Z,15.08
2019-03-22T11:52:04.557Z,15.10
2019-03-22T11:54:32.995Z,15.65
2019-03-22T11:57:01.409Z,15.46
2019-03-22T11:59:29.864Z,15.78
2019-03-22T12:01:58.251Z,15.73
2019-03-22T12:04:26.647Z,15.87
2019-03-22T12:06:55.279Z,15.84
2019-03-22T12:09:23.719Z,15.74
2019-03-22T12:11:52.120Z,15.81
2019-03-22T12:14:20.746Z,15.94
2019-03-22T12:16:49.131Z,16.17
2019-03-22T12:19:17.530Z,16.19
2019-03-22T12:21:46.167Z,16.41
2019-03-22T12:24:14.804Z,16.77
2019-03-22T12:26:43.428Z,16.68
2019-03-22T12:29:11.907Z,16.50
2019-03-22T12:31:40.288Z,16.47
2019-03-22T12:34:08.913Z,16.41
2019-03-22T12:36:37.367Z,16.29
2019-03-22T12:39:08.037Z,16.23
2019-03-22T12:41:36.676Z,16.38
2019-03-22T12:44:05.309Z,16.33
2019-03-22T12:46:34.020Z,16.43
2019-03-22T12:49:02.428Z,16.47
2019-03-22T12:51:31.070Z,16.47
2019-03-22T12:53:59.492Z,16.61
2019-03-22T12:56:28.103Z,16.60
2019-03-22T12:58:56.490Z,16.55
2019-03-22T13:01:24.891Z,16.60
2019-03-22T13:03:53.328Z,16.63
2019-03-22T13:06:21.734Z,16.72
2019-03-22T13:08:50.119Z,16.83
2019-03-22T13:11:18.503Z,16.91
2019-03-22T13:13:47.144Z,16.89
2019-03-22T13:16:15.616Z,16.87
2019-03-22T13:18:50.069Z,16.79
2019-03-22T13:21:14.421Z,17.04
2019-03-22T13:23:42.807Z,17.08
2019-03-22T13:26:11.464Z,17.21
2019-03-22T13:28:40.088Z,17.48
2019-03-22T13:31:08.737Z,17.43
2019-03-22T13:33:37.125Z,17.49
2019-03-22T13:36:06.180Z,17.59
2019-03-22T13:38:34.812Z,17.64
2019-03-22T13:41:03.256Z,17.68
2019-03-22T13:43:31.683Z,17.70
2019-03-22T13:46:00.308Z,17.64
2019-03-22T13:48:28.693Z,17.68
2019-03-22T13:50:57.094Z,17.53
2019-03-22T13:53:25.745Z,17.72
2019-03-22T13:55:54.395Z,17.64
2019-03-22T13:58:22.783Z,17.80
2019-03-22T14:00:51.392Z,17.73
2019-03-22T14:03:19.794Z,17.72
2019-03-22T14:05:48.185Z,17.75
2019-03-22T14:08:16.592Z,17.81
2019-03-22T14:10:45.222Z,17.75
2019-03-22T14:13:13.608Z,17.75
2019-03-22T14:15:42.008Z,17.92
2019-03-22T14:18:10.653Z,18.03
2019-03-22T14:20:39.276Z,17.96
2019-03-22T14:23:07.665Z,17.98
2019-03-22T14:25:36.304Z,18.00
2019-03-22T14:28:05.133Z,18.05
2019-03-22T14:30:33.525Z,17.91
2019-03-22T14:33:01.925Z,17.89
2019-03-22T14:35:30.308Z,18.02
2019-03-22T14:37:58.935Z,18.04
2019-03-22T14:40:27.575Z,18.10
2019-03-22T14:42:56.197Z,17.92
2019-03-22T14:45:24.596Z,18.05
2019-03-22T14:47:53.221Z,18.11
2019-03-22T14:50:21.609Z,18.04
2019-03-22T14:52:50.259Z,18.17
2019-03-22T14:55:18.648Z,18.13
2019-03-22T14:57:50.110Z,18.10
2019-03-22T15:00:17.714Z,18.01
2019-03-22T15:02:46.336Z,18.06
2019-03-22T15:05:14.978Z,18.17
2019-03-22T15:07:43.608Z,18.13
2019-03-22T15:10:13.249Z,18.38
2019-03-22T15:12:42.702Z,18.33
2019-03-22T15:15:15.906Z,18.33
2019-03-22T15:17:51.868Z,18.45
2019-03-22T15:20:27.884Z,18.44
2019-03-22T15:23:00.551Z,18.65
2019-03-22T15:25:39.660Z,18.65
2019-03-22T15:28:12.085Z,18.57
2019-03-22T15:30:48.239Z,18.72
2019-03-22T15:33:18.546Z,18.58
2019-03-22T15:36:04.653Z,18.53
2019-03-22T15:38:35.142Z,18.54
2019-03-22T15:41:03.848Z,18.42
2019-03-22T15:43:32.483Z,18.25
2019-03-22T15:46:01.138Z,18.12
2019-03-22T15:48:29.785Z,18.17
2019-03-22T15:50:58.173Z,18.09
2019-03-22T15:53:26.797Z,17.83
2019-03-22T15:55:55.195Z,17.93
2019-03-22T15:58:23.825Z,17.81
2019-03-22T16:00:52.223Z,17.88
2019-03-22T16:03:20.615Z,17.67
2019-03-22T16:05:49.008Z,17.63
2019-03-22T16:08:17.410Z,17.59
2019-03-22T16:10:45.792Z,17.43
2019-03-22T16:13:14.433Z,17.44
2019-03-22T16:15:42.819Z,17.33
2019-03-22T16:18:11.807Z,17.47
2019-03-22T16:20:40.157Z,17.44
2019-03-22T16:23:08.783Z,17.45
2019-03-22T16:25:37.252Z,17.25
2019-03-22T16:28:05.636Z,17.14
2019-03-22T16:30:34.267Z,17.02
2019-03-22T16:33:02.736Z,17.12
2019-03-22T16:35:31.369Z,17.03
2019-03-22T16:37:59.773Z,16.88
2019-03-22T16:40:28.203Z,16.71
2019-03-22T16:42:56.644Z,16.59
2019-03-22T16:45:38.652Z,16.53
2019-03-22T16:48:07.344Z,16.38
2019-03-22T16:50:35.746Z,16.30
2019-03-22T16:53:04.536Z,16.27
2019-03-22T16:55:33.015Z,16.12
2019-03-22T16:58:01.669Z,16.15
2019-03-22T17:00:30.307Z,15.89
2019-03-22T17:02:58.939Z,15.80
2019-03-22T17:05:27.340Z,15.64
2019-03-22T17:07:55.729Z,15.55
2019-03-22T17:10:24.118Z,15.36
2019-03-22T17:12:52.754Z,15.26
2019-03-22T17:15:21.141Z,15.30
2019-03-22T17:17:49.528Z,15.10
2019-03-22T17:20:18.022Z,14.75
2019-03-22T17:22:46.411Z,14.77
2019-03-22T17:25:14.867Z,14.77
2019-03-22T17:27:43.505Z,14.66
2019-03-22T17:30:12.468Z,14.50
2019-03-22T17:32:41.093Z,14.22
2019-03-22T17:35:09.815Z,14.06
2019-03-22T17:37:38.271Z,13.95
2019-03-22T17:40:08.136Z,13.95
2019-03-22T17:42:36.614Z,13.81
2019-03-22T17:45:11.376Z,13.42
2019-03-22T17:47:39.761Z,13.44
2019-03-22T17:50:10.202Z,13.44
2019-03-22T17:52:38.835Z,13.44
2019-03-22T17:55:08.797Z,13.30
2019-03-22T17:57:37.205Z,13.19
2019-03-22T18:00:08.712Z,12.83
2019-03-22T18:02:37.181Z,12.83
2019-03-22T18:05:09.606Z,12.93
2019-03-22T18:07:37.982Z,12.87
2019-03-22T18:10:08.947Z,12.63
2019-03-22T18:12:37.347Z,12.42
2019-03-22T18:15:08.546Z,12.23
2019-03-22T18:17:37.175Z,12.23
2019-03-22T18:20:08.721Z,12.10
2019-03-22T18:22:37.376Z,11.93
2019-03-22T18:25:07.845Z,11.92
2019-03-22T18:27:36.488Z,11.87
2019-03-22T18:30:10.960Z,11.75
2019-03-22T18:32:39.393Z,11.65
2019-03-22T18:35:08.784Z,11.54
2019-03-22T18:37:37.173Z,11.54
2019-03-22T18:40:07.909Z,11.45
2019-03-22T18:42:36.335Z,11.38
2019-03-22T18:45:07.211Z,11.34
2019-03-22T18:47:35.734Z,11.60
2019-03-22T18:50:06.823Z,11.54
2019-03-22T18:52:35.518Z,11.54
2019-03-22T18:55:05.581Z,11.54
2019-03-22T18:57:34.096Z,11.71
2019-03-22T19:00:02.930Z,11.87
2019-03-22T19:02:31.541Z,11.80
2019-03-22T19:05:00.349Z,11.85
2019-03-22T19:07:28.999Z,11.91
2019-03-22T19:09:57.387Z,11.91
2019-03-22T19:12:26.016Z,12.15
2019-03-22T19:14:54.644Z,12.09
2019-03-22T19:17:23.271Z,12.33
2019-03-22T19:19:51.678Z,12.32
2019-03-22T19:22:20.059Z,12.16
2019-03-22T19:24:48.700Z,11.99
2019-03-22T19:27:17.351Z,11.90
2019-03-22T19:29:45.738Z,11.79
2019-03-22T19:32:14.122Z,11.57
2019-03-22T19:34:42.760Z,11.36
2019-03-22T19:37:11.379Z,11.22
2019-03-22T19:39:39.795Z,11.14
2019-03-22T19:42:08.262Z,11.20
2019-03-22T19:44:36.886Z,11.30
2019-03-22T19:47:05.536Z,11.13
2019-03-22T19:49:33.935Z,10.91
2019-03-22T19:52:02.572Z,10.80
2019-03-22T19:54:31.194Z,10.87
2019-03-22T19:56:59.595Z,10.68
2019-03-22T19:59:27.988Z,10.50
2019-03-22T20:01:56.627Z,10.40
2019-03-22T20:04:25.279Z,10.37
2019-03-22T20:06:53.909Z,10.19
2019-03-22T20:09:22.294Z,10.17
2019-03-22T20:11:50.948Z,10.08
2019-03-22T20:14:19.588Z,9.96
2019-03-22T20:16:47.959Z,9.96
2019-03-22T20:19:16.366Z,9.89
2019-03-22T20:21:44.747Z,9.78
2019-03-22T20:24:13.132Z,9.68
2019-03-22T20:26:41.590Z,9.59
2019-03-22T20:29:09.985Z,9.51
2019-03-22T20:31:38.604Z,9.46
2019-03-22T20:34:07.327Z,9.44
2019-03-22T20:36:35.762Z,9.38
2019-03-22T20:39:06.146Z,9.36
2019-03-22T20:41:36.203Z,9.33
2019-03-22T20:44:04.725Z,9.28
2019-03-22T20:46:33.360Z,9.26
2019-03-22T20:49:01.759Z,9.23
2019-03-22T20:51:30.370Z,9.14
2019-03-22T20:53:58.750Z,9.07
2019-03-22T20:56:27.153Z,9.02
2019-03-22T20:58:55.535Z,8.98
2019-03-22T21:01:24.157Z,9.02
2019-03-22T21:03:52.791Z,9.02
2019-03-22T21:06:21.443Z,8.97
2019-03-22T21:08:50.048Z,9.00
2019-03-22T21:11:18.452Z,8.97
2019-03-22T21:13:46.841Z,8.91
2019-03-22T21:16:15.476Z,8.89
2019-03-22T21:18:44.119Z,8.82
2019-03-22T21:21:12.513Z,8.76
2019-03-22T21:23:40.898Z,8.78
2019-03-22T21:26:09.535Z,8.77
2019-03-22T21:28:37.976Z,8.79
2019-03-22T21:31:06.355Z,8.70
2019-03-22T21:33:35.002Z,8.72
2019-03-22T21:36:03.644Z,8.59
2019-03-22T21:38:32.075Z,8.53
2019-03-22T21:41:00.476Z,8.48
2019-03-22T21:43:29.096Z,8.40
2019-03-22T21:45:57.711Z,8.37
2019-03-22T21:48:26.104Z,8.41
2019-03-22T21:50:54.723Z,8.36
2019-03-22T21:53:23.418Z,8.37
2019-03-22T21:55:54.077Z,8.38
2019-03-22T21:58:21.857Z,8.37
2019-03-22T22:00:50.268Z,8.38
2019-03-22T22:03:18.703Z,8.57
2019-03-22T22:05:48.354Z,8.73
2019-03-22T22:08:16.740Z,8.67
2019-03-22T22:10:45.128Z,8.52
2019-03-22T22:13:13.522Z,8.39
2019-03-22T22:15:41.955Z,8.29
2019-03-22T22:18:10.350Z,8.18
2019-03-22T22:20:38.733Z,8.11
2019-03-22T22:23:07.168Z,8.05
2019-03-22T22:25:35.806Z,7.90
2019-03-22T22:28:04.431Z,7.95
2019-03-22T22:30:33.062Z,7.88
2019-03-22T22:33:01.453Z,7.87
2019-03-22T22:35:30.099Z,7.86
2019-03-22T22:37:58.728Z,7.86
2019-03-22T22:40:27.111Z,7.85
2019-03-22T22:42:55.527Z,7.83
2019-03-22T22:45:23.904Z,7.85
2019-03-22T22:47:52.358Z,7.84
2019-03-22T22:50:20.736Z,7.94
2019-03-22T22:52:49.366Z,7.93
2019-03-22T22:55:17.760Z,7.88
2019-03-22T22:57:46.386Z,7.87
2019-03-22T23:00:16.022Z,7.76
2019-03-22T23:02:44.797Z,7.70
2019-03-22T23:05:13.198Z,7.65
2019-03-22T23:07:41.911Z,7.60
2019-03-22T23:10:12.676Z,7.52
2019-03-22T23:12:41.038Z,7.49
2019-03-22T23:15:09.960Z,7.39
2019-03-22T23:17:38.595Z,7.37
2019-03-22T23:20:08.718Z,7.35
2019-03-22T23:22:37.115Z,7.31
2019-03-22T23:25:07.589Z,7.30
2019-03-22T23:27:36.948Z,7.27
2019-03-22T23:30:07.520Z,7.30
2019-03-22T23:32:35.905Z,7.32
2019-03-22T23:35:06.303Z,7.33
2019-03-22T23:37:34.695Z,7.35
2019-03-22T23:40:03.743Z,7.42
2019-03-22T23:42:32.375Z,7.42
2019-03-22T23:45:00.769Z,7.38
2019-03-22T23:47:29.178Z,7.30
2019-03-22T23:49:57.563Z,7.23
2019-03-22T23:52:26.187Z,7.21
2019-03-22T23:54:54.585Z,7.19
2019-03-22T23:57:23.222Z,7.20
2019-03-22T23:59:53.103Z,7.20
